SKAR/AXM METAR and TAF weather

Enter ICAO airport designator
Station Type Date Time Source
SKAR METAR 2022/01/29 14:00 UTC NOAA

SKAR 291400Z 18003KT 8000 VCFG FEW010 SCT017 20/19 Q1020 RMK A3014


Station Type Date Time Source
SKAR Decoded METAR 2022/01/29 14:00 UTC NOAA

Armenia / El Eden, Colombia (SKAR) 04-30N 075-43W 1219M
Jan 29, 2022 - 09:00 AM EST / 2022.01.29 1400 UTC
Wind: from the S (180 degrees) at 3 MPH (3 KT):0
Visibility: 4 mile(s):0
Sky conditions: partly cloudy
Weather: fog in the vicinity
Temperature: 68 F (20 C)
Dew Point: 66 F (19 C)
Relative Humidity: 93%
Pressure (altimeter): 30.12 in. Hg (1020 hPa)
ob: SKAR 291400Z 18003KT 8000 VCFG FEW010 SCT017 20/19 Q1020 RMK A3014
cycle: 14

Station Type Date Time Source
SKAR TAF 2022/01/29 12:45 UTC NOAA

TAF TAF SKAR 291030Z 2912/3012 00000KT 9999 SCT017
TEMPO 2912/2914 4000 DZ BR BKN015
TEMPO 2919/2923 36008KT TSRA SCT017CB BKN080 PROB40 3002/3006 DZRA SCT015TCU TX29/2920Z TN17/2910Z

Example: see airport list